Weather reports worldwide

Advertisment
Meßstetten-Appental, Germany (10827): temperature & dewpoint: 19.08.2019 08:00:00 - 25.08.2019 08:00:00 (CEST)Meßstetten-Appental, Germany (10827): temperature 5cm & temperature -5cm: 19.08.2019 08:00:00 - 25.08.2019 08:00:00 (CEST)Meßstetten-Appental, Germany (10827): temperature -20cm & temperature -100cm: 19.08.2019 08:00:00 - 25.08.2019 08:00:00 (CEST)Meßstetten-Appental, Germany (10827): wind speed & gusts: 19.08.2019 08:00:00 - 25.08.2019 08:00:00 (CEST)Meßstetten-Appental, Germany (10827): wind direction: 19.08.2019 08:00:00 - 25.08.2019 08:00:00 (CEST)Meßstetten-Appental, Germany (10827): visibility: 19.08.2019 08:00:00 - 25.08.2019 08:00:00 (CEST)Meßstetten-Appental, Germany (10827): sunshine duration: 19.08.2019 08:00:00 - 25.08.2019 08:00:00 (CEST)Meßstetten-Appental, Germany (10827): precipitation: 19.08.2019 08:00:00 - 25.08.2019 08:00:00 (CEST)
Date & Time tt [°C] td [°C] tt 5cm [°C] tt -5cm [°C] tt -20cm [°C] tt -100cm [°C] ff [km/h] ff [kn] fx [km/h] fx [kn] dd vv [km] sd [min] rr [mm]
25.08.2019 08:00:00 13,9 13,7 12,3 12,5 16,5 15,6 4 2 5 3 ENE 3,8 26 0,0
25.08.2019 07:00:00 9,4 9,2 7,0 12,0 16,8 15,6 4 2 6 3 ENE 2,0 0 0,0
25.08.2019 06:00:00 10,6 10,6 7,1 12,3 17,0 15,6 4 2 5 3 E 1,4 0 0,0
25.08.2019 05:00:00 9,1 8,9 5,7 12,7 17,3 15,6 3 1 5 3 ENE 0,2 0 0,0
25.08.2019 04:00:00 10,0 10,0 6,3 13,2 17,6 15,6 3 2 4 2 ENE 1,1 0 0,0
25.08.2019 03:00:00 9,3 9,2 6,0 13,8 17,9 15,6 0 0 2 1 N 0,1 0 0,0
25.08.2019 02:00:00 9,9 9,7 6,9 14,5 18,1 15,6 2 1 3 2 ENE 0,6 0 0,0
25.08.2019 01:00:00 10,1 10,0 7,4 15,2 18,3 15,6 0 0 5 3 N 0,1 0 0,0
25.08.2019 00:00:00 11,8 11,7 8,6 16,0 18,5 15,6 3 2 5 3 E 0,3 0 0,0
24.08.2019 23:00:00 11,9 11,6 8,3 17,1 18,7 15,6 2 1 5 3 E 0,4 0 0,0
24.08.2019 22:00:00 14,6 13,7 11,0 18,4 18,7 15,6 4 2 12 6 E 8 0 0,0
24.08.2019 21:00:00 15,3 13,5 11,6 19,9 18,6 15,6 2 1 10 5 ESE 11 0 0,0
24.08.2019 20:00:00 20,4 15,5 17,6 21,5 18,5 15,7 4 2 13 7 NE 19 40 0,0
24.08.2019 19:00:00 21,0 15,4 18,6 22,4 18,2 15,7 3 2 13 7 NNW 22 14 0,0
24.08.2019 18:00:00 22,1 15,7 22,8 23,7 17,7 15,7 4 2 15 8 N 22 22 0,0
24.08.2019 17:00:00 21,6 14,0 20,1 25,2 17,2 15,7 3 2 13 7 N 27 26 0,0
24.08.2019 16:00:00 23,0 14,1 25,9 25,7 16,7 15,7 6 3 14 8 SE 27 53 0,0
24.08.2019 15:00:00 22,6 14,0 25,4 24,2 16,3 15,7 6 3 16 9 SSW 27 52 0,0
24.08.2019 14:00:00 20,7 13,7 20,9 22,3 15,9 15,7 3 2 11 6 N 26 22 0,0
24.08.2019 13:00:00 19,7 13,8 19,7 21,0 15,6 15,7 7 4 16 8 ESE 24 17 0,0
24.08.2019 12:00:00 19,2 14,1 20,1 19,2 15,4 15,7 8 4 18 10 E 19 9 0,0
24.08.2019 11:00:00 18,3 14,6 18,1 17,7 15,3 15,7 12 7 21 11 ESE 15 10 0,0
24.08.2019 10:00:00 18,1 14,5 17,7 16,3 15,3 15,7 13 7 22 12 E 14 60 0,0
24.08.2019 09:00:00 16,7 14,0 14,5 13,7 15,5 15,7 9 5 15 8 E 12 27 0,0
24.08.2019 08:00:00 13,1 12,9 11,5 11,8 15,7 15,7 5 3 7 4 E 4,9 0 0,0
24.08.2019 07:00:00 8,1 7,9 5,7 11,1 16,0 15,7 0 0 3 2 N 0,1 0 0,0
24.08.2019 06:00:00 9,0 8,7 4,7 11,4 16,2 15,7 0 0 10 5 N 0,1 0 0,0
24.08.2019 05:00:00 11,9 11,4 6,2 11,9 16,5 15,7 5 3 10 5 E 5 0 0,0
24.08.2019 04:00:00 11,4 10,9 5,4 12,3 16,7 15,7 5 3 14 7 ESE 4,3 0 0,0
24.08.2019 03:00:00 12,7 11,5 7,8 12,6 17,0 15,7 8 4 13 7 E 9 0 0,0
24.08.2019 02:00:00 12,6 11,3 7,3 13,0 17,3 15,7 7 4 11 6 E 11 0 0,0
24.08.2019 01:00:00 12,3 10,7 7,4 13,7 17,5 15,7 6 4 17 9 E 11 0 0,0
24.08.2019 00:00:00 11,2 11,0 5,6 14,2 17,7 15,7 8 4 10 5 E 8 0 0,0
23.08.2019 23:00:00 8,6 7,7 5,6 15,3 17,9 15,7 2 1 5 3 N 5 0 0,0
23.08.2019 22:00:00 10,9 9,8 7,4 16,6 18,0 15,7 4 2 7 4 ENE 11 0 0,0
23.08.2019 21:00:00 12,5 10,1 8,6 18,2 17,9 15,7 3 1 15 8 E 20 0 0,0
23.08.2019 20:00:00 17,1 12,0 13,7 19,9 17,7 15,7 6 4 18 10 E 27 42 0,0
23.08.2019 19:00:00 19,1 11,9 18,3 21,2 17,4 15,7 13 7 24 13 E 29 60 0,0
23.08.2019 18:00:00 19,8 12,3 20,1 22,1 17,0 15,8 13 7 25 14 E 28 60 0,0
23.08.2019 17:00:00 20,1 11,2 22,0 22,8 16,5 15,8 11 6 29 15 ENE 33 60 0,0
23.08.2019 16:00:00 19,9 12,5 22,1 23,0 16,1 15,8 16 9 27 15 E 19 60 0,0
23.08.2019 15:00:00 19,8 12,0 21,4 22,7 15,6 15,8 17 9 29 15 E 19 60 0,0
23.08.2019 14:00:00 19,1 12,5 21,6 21,9 15,2 15,8 15 8 27 15 ENE 22 60 0,0
23.08.2019 13:00:00 18,2 11,4 20,0 20,3 14,9 15,8 17 9 32 17 E 15 60 0,0
23.08.2019 12:00:00 17,1 11,0 18,4 18,0 14,8 15,8 19 10 32 18 E 19 36 0,0
23.08.2019 11:00:00 15,8 11,9 16,0 15,7 14,7 15,8 19 10 31 17 ENE 24 25 0,0
23.08.2019 10:00:00 15,2 12,4 14,0 14,5 14,8 15,8 16 9 29 16 E 15 34 0,0
23.08.2019 09:00:00 13,3 11,7 11,8 12,5 15,0 15,8 12 6 26 14 E 10 8 0,0
23.08.2019 08:00:00 12,8 11,2 10,2 10,9 15,2 15,8 15 8 24 13 E 11 10 0,1
23.08.2019 07:00:00 11,4 10,6 8,0 10,1 15,5 15,8 13 7 17 9 E 9 0 0,1
23.08.2019 06:00:00 10,1 9,8 5,5 10,0 15,8 15,8 10 5 14 8 ENE 7 0 0,0
23.08.2019 05:00:00 7,1 7,1 2,2 10,4 16,1 15,8 6 4 9 5 E 0,7 0 0,0
23.08.2019 04:00:00 5,2 5,2 2,3 11,1 16,5 15,8 2 1 4 2 NE 0,1 0 0,0
23.08.2019 03:00:00 5,9 5,8 3,4 11,7 16,7 15,8 0 0 3 2 N 0,1 0 0,0
23.08.2019 02:00:00 6,6 6,4 3,8 12,4 17,0 15,8 3 2 5 3 E 0,3 0 0,0
23.08.2019 01:00:00 9,5 9,5 5,5 13,2 17,3 15,8 4 2 5 3 E 0,5 0 0,0
23.08.2019 00:00:00 7,7 7,6 5,1 14,1 17,5 15,8 0 0 5 3 N 0,2 0 0,0
22.08.2019 23:00:00 9,4 9,2 5,4 15,3 17,6 15,9 2 1 7 4 ENE 2,6 0 0,0
22.08.2019 22:00:00 13,1 12,0 8,9 16,6 17,7 15,9 6 4 9 5 ESE 21 0 0,0
22.08.2019 21:00:00 13,8 11,9 9,9 18,0 17,6 15,9 4 2 11 6 E 29 0 0,0
22.08.2019 20:00:00 16,0 11,6 12,9 19,8 17,4 15,9 8 4 17 9 E 49 49 0,0
22.08.2019 19:00:00 16,7 12,1 14,1 20,9 17,1 15,9 5 3 21 12 E 44 38 0,0
22.08.2019 18:00:00 18,2 12,0 17,9 22,2 16,6 15,9 11 6 20 11 E 52 38 0,0
22.08.2019 17:00:00 18,7 12,2 21,2 22,8 16,2 15,9 10 6 22 12 E 26 59 0,0
22.08.2019 16:00:00 18,7 12,7 20,8 22,8 15,7 15,9 13 7 22 12 E 21 60 0,0
22.08.2019 15:00:00 17,8 12,3 21,4 22,3 15,2 15,9 12 7 23 13 E 24 57 0,0
22.08.2019 14:00:00 17,1 11,7 19,4 21,3 14,8 15,9 13 7 26 14 E 37 54 0,0
22.08.2019 13:00:00 16,6 11,6 20,0 19,9 14,5 15,9 14 7 26 14 E 29 60 0,0
22.08.2019 12:00:00 15,6 10,3 17,3 17,9 14,3 15,9 18 10 31 17 E 21 58 0,0
22.08.2019 11:00:00 15,1 10,7 16,7 15,9 14,3 15,9 18 10 36 19 E 21 59 0,0
22.08.2019 10:00:00 13,2 9,7 13,3 13,8 14,3 15,9 22 12 45 24 E 13 59 0,0
22.08.2019 09:00:00 12,1 9,4 11,5 11,9 14,5 15,9 22 12 35 19 E 16 60 0,0
22.08.2019 08:00:00 10,9 8,9 9,1 10,5 14,7 15,9 21 12 31 17 E 21 30 0,0
22.08.2019 07:00:00 9,8 8,2 7,0 10,2 14,9 15,9 17 9 25 13 E 39 0 0,0
22.08.2019 06:00:00 10,2 8,3 7,2 10,5 15,1 15,9 16 9 28 15 E 38 0 0,0
22.08.2019 05:00:00 10,5 8,1 7,3 10,8 15,3 16,0 17 9 29 16 E 51 0 0,0
22.08.2019 04:00:00 10,7 8,6 7,5 11,2 15,5 16,0 16 9 26 14 E 40 0 0,0
22.08.2019 03:00:00 11,0 9,3 8,0 11,5 15,7 16,0 16 9 26 14 E 25 0 0,0
22.08.2019 02:00:00 11,0 9,3 7,9 11,8 15,9 16,0 15 8 26 14 E 21 0 0,0
22.08.2019 01:00:00 11,4 9,4 8,3 12,3 16,1 16,0 14 8 24 13 E 22 0 0,0
22.08.2019 00:00:00 11,8 9,2 8,8 12,8 16,3 16,0 15 8 23 12 E 28 0 0,0
21.08.2019 23:00:00 11,5 8,8 8,6 13,3 16,5 16,0 13 7 20 11 ENE 33 0 0,0
21.08.2019 22:00:00 10,6 8,1 6,5 14,1 16,6 16,0 8 4 12 6 E 36 0 0,0
21.08.2019 21:00:00 11,2 8,0 7,4 15,1 16,6 16,0 7 4 14 7 E 44 0 0,0
21.08.2019 20:00:00 13,3 8,4 10,4 16,4 16,5 16,0 11 6 22 12 E 59 0 0,0
21.08.2019 19:00:00 14,2 8,8 12,3 17,7 16,3 16,0 15 8 27 14 E 60 31 0,0
21.08.2019 18:00:00 14,8 7,9 13,4 18,8 16,0 16,0 22 12 31 17 E 53 39 0,0
21.08.2019 17:00:00 15,1 7,6 14,2 19,3 15,7 16,0 20 11 31 17 ENE 45 34 0,0
21.08.2019 16:00:00 15,5 8,9 16,2 19,5 15,3 16,0 19 10 29 16 E 38 34 0,0
21.08.2019 15:00:00 15,1 8,9 14,9 19,3 15,0 16,0 15 8 34 19 ENE 54 32 0,0
21.08.2019 14:00:00 15,4 8,4 18,0 19,2 14,6 16,0 20 11 29 16 E 25 49 0,0
21.08.2019 13:00:00 14,2 7,9 15,3 18,4 14,3 16,0 22 12 32 17 ENE 37 51 0,0
21.08.2019 12:00:00 14,5 9,0 16,7 16,6 14,2 16,0 18 10 32 17 E 31 51 0,0
21.08.2019 11:00:00 13,9 9,1 15,3 15,4 14,1 16,0 14 8 27 14 E 22 60 0,0
21.08.2019 10:00:00 12,5 7,2 11,5 13,3 14,2 16,0 19 10 26 14 E 26 60 0,0
21.08.2019 09:00:00 11,4 7,1 9,5 11,4 14,4 16,0 16 9 21 12 ENE 22 60 0,0
21.08.2019 08:00:00 8,2 6,4 7,1 9,6 14,6 16,0 0 0 6 3 N 32 35 0,0
21.08.2019 07:00:00 4,7 4,5 2,1 9,1 14,9 16,0 3 2 6 4 E 24 0 0,0
21.08.2019 06:00:00 4,3 4,1 2,3 9,8 15,0 16,0 4 2 5 3 ENE 0,5 0 0,0
21.08.2019 05:00:00 4,9 4,7 2,4 10,6 15,2 16,0 4 2 5 3 E 0,8 0 0,0
21.08.2019 04:00:00 7,2 6,9 5,0 11,4 15,4 16,0 0 0 2 1 N 2,2 0 0,0
21.08.2019 03:00:00 8,4 8,4 6,8 11,8 15,5 16,0 0 0 5 3 N 0,3 0 0,0
21.08.2019 02:00:00 8,0 7,6 5,6 12,2 15,6 16,0 0 0 4 2 N 2,6 0 0,0
21.08.2019 01:00:00 10,1 9,9 8,6 12,7 15,8 16,0 3 1 4 2 SSW 14 0 0,0
21.08.2019 00:00:00 9,9 9,7 8,6 12,8 15,9 16,0 2 1 7 4 WNW 11 0 0,0
20.08.2019 23:00:00 9,9 9,6 8,4 13,0 16,0 16,0 0 0 4 2 N 11 0 0,0
20.08.2019 22:00:00 10,1 9,8 8,6 13,2 16,2 15,9 3 1 11 6 W 12 0 0,8
20.08.2019 21:00:00 10,2 10,0 8,9 13,5 16,3 15,9 10 6 18 10 WNW 5 0 0,6
20.08.2019 20:00:00 10,5 10,2 9,3 13,8 16,4 15,9 7 4 14 8 NW 6 0 0,9
20.08.2019 19:00:00 10,6 10,1 9,4 14,0 16,5 15,9 6 4 18 10 NW 7 0 1,5
20.08.2019 18:00:00 10,4 9,6 9,1 14,4 16,6 15,9 9 5 23 12 NW 8 0 1,8
20.08.2019 17:00:00 10,7 9,7 9,4 14,9 16,7 15,9 10 6 21 11 NNW 9 0 1,6
20.08.2019 16:00:00 11,2 10,2 10,0 15,5 16,7 15,9 9 5 21 12 NW 6 0 1,3
20.08.2019 15:00:00 11,8 11,0 10,7 15,9 16,7 15,9 10 6 19 10 NW 6 0 1,2
20.08.2019 14:00:00 12,1 10,7 10,9 16,3 16,6 15,9 11 6 22 12 NW 7 0 0,1
20.08.2019 13:00:00 12,9 10,0 11,4 16,4 16,7 15,9 9 5 19 10 NW 19 0 0,0
20.08.2019 12:00:00 12,9 11,0 11,7 15,5 16,7 15,9 8 4 22 12 WNW 28 0 0,1
20.08.2019 11:00:00 12,3 10,2 10,6 15,0 16,8 15,9 6 4 15 8 NW 20 0 0,4
20.08.2019 10:00:00 12,4 10,7 10,8 15,0 16,9 15,9 6 4 14 8 W 20 0 0,0
20.08.2019 09:00:00 12,6 9,5 10,2 14,8 17,1 15,9 3 2 13 7 SW 34 0 0,0
20.08.2019 08:00:00 12,5 10,1 10,0 14,4 17,2 15,9 5 3 16 9 NNW 35 0 0,0
20.08.2019 07:00:00 12,6 11,0 10,2 14,4 17,4 15,9 6 3 17 9 NNW 26 0 0,0
20.08.2019 06:00:00 12,8 11,6 10,6 14,7 17,5 15,9 3 2 15 8 NNW 20 0 0,0
20.08.2019 05:00:00 13,1 12,3 11,1 15,0 17,7 15,9 6 3 13 7 NW 16 0 0,0
20.08.2019 04:00:00 12,9 12,7 11,4 15,1 17,8 15,9 4 2 11 6 WNW 11 0 0,0
20.08.2019 03:00:00 12,8 12,7 11,1 15,5 18,0 15,9 8 4 11 6 WNW 10 0 0,0
20.08.2019 02:00:00 12,9 12,7 11,1 15,7 18,1 15,9 4 2 6 3 WNW 0,2 0 0,0
20.08.2019 01:00:00 13,0 12,8 11,0 16,0 18,3 15,9 3 1 6 4 W 12 0 0,0
20.08.2019 00:00:00 13,7 13,4 11,9 16,4 18,4 15,9 3 2 8 5 SSW 17 0 0,0
19.08.2019 23:00:00 13,4 13,1 11,5 16,8 18,6 15,9 0 0 8 4 N 10 0 0,0
19.08.2019 22:00:00 13,6 13,2 11,7 17,3 18,7 15,9 2 1 5 3 SSW 14 0 0,0
19.08.2019 21:00:00 14,5 14,0 12,9 18,0 18,7 15,9 0 0 6 4 N 22 0 0,0
19.08.2019 20:00:00 15,1 13,8 13,2 18,6 18,7 15,9 4 2 10 5 N 24 5 0,2
19.08.2019 19:00:00 15,4 13,6 13,5 19,2 18,7 15,9 4 2 8 4 SSW 41 0 1,1
19.08.2019 18:00:00 15,3 14,2 13,7 19,7 18,7 15,9 6 3 16 9 W 3,2 0 0,7
19.08.2019 17:00:00 16,3 12,9 14,1 20,5 18,5 15,9 9 5 14 8 WNW 43 0 0,0
19.08.2019 16:00:00 16,7 13,5 15,3 21,2 18,4 15,9 7 4 16 8 NW 52 0 0,3
19.08.2019 15:00:00 16,7 14,1 14,8 21,3 18,2 15,9 6 3 17 9 WNW 7 1 0,0
19.08.2019 14:00:00 17,3 14,3 16,7 21,4 18,0 15,9 9 5 17 9 W 55 1 0,0
19.08.2019 13:00:00 17,2 13,9 16,4 21,9 17,9 15,9 11 6 20 11 WNW 49 27 0,2
19.08.2019 12:00:00 16,8 13,9 16,2 19,4 17,9 15,9 8 5 15 8 W 56 0 0,0
19.08.2019 11:00:00 16,0 13,8 14,8 18,2 17,9 15,9 7 4 15 8 SW 60 0 0,0
19.08.2019 10:00:00 15,5 14,2 14,0 17,4 18,0 15,9 6 4 17 9 SW 58 0 0,0
19.08.2019 09:00:00 15,1 14,4 13,7 16,5 18,2 15,9 7 4 16 9 S 29 0 0,3
19.08.2019 08:00:00 15,0 14,5 13,4 16,4 18,3 15,9 8 4 14 8 S 30 0 0,2

tt = temperature
td = dewpoint
tt 5cm = temperature 5cm
tt -5cm = temperature -5cm
tt -20cm = temperature -20cm
tt -100cm = temperature -100cm
ff = wind speed
fx = gusts
dd = wind direction
vv = visibility
sd = sunshine duration
rr = precipitation

Next stations